Time;durP1;ratioP1;P1;durP2;ratioP2;P2;SDS_P1;SDS_P2;PMS_P1;PMS_P2;Temp;Humidity;BMP_temperature;BMP_pressure;BME280_temperature;BME280_humidity;BME280_pressure;Samples;Min_cycle;Max_cycle;Signal;HPM_P1;HPM_P2
2022/11/21 00:01:42;;;;;;;86.00;41.20;;;;;;;-2.81;83.04;99753.47;100256;1294;99909;-56
2022/11/21 00:04:14;;;;;;;77.10;39.80;;;;;;;-2.72;83.19;99747.60;100259;1300;95784;-59
2022/11/21 00:06:43;;;;;;;79.30;42.50;;;;;;;-2.63;83.00;99750.61;100294;1298;81915;-59
2022/11/21 00:09:15;;;;;;;82.90;43.40;;;;;;;-2.59;83.05;99753.61;100266;1300;89694;-59
2022/11/21 00:11:46;;;;;;;79.90;42.90;;;;;;;-2.53;82.88;99754.02;100318;1287;79369;-59
2022/11/21 00:14:16;;;;;;;81.20;42.50;;;;;;;-2.49;82.84;99749.94;100295;1294;99163;-57
2022/11/21 00:16:47;;;;;;;84.60;43.50;;;;;;;-2.50;82.88;99751.34;100277;1298;95667;-57
2022/11/21 00:19:17;;;;;;;83.30;42.40;;;;;;;-2.56;82.94;99756.02;100284;1291;82593;-57
2022/11/21 00:21:46;;;;;;;83.80;42.60;;;;;;;-2.56;82.81;99750.60;100242;1292;89550;-57
2022/11/21 00:24:17;;;;;;;93.10;44.80;;;;;;;-2.60;82.70;99752.30;100245;1295;82781;-56
2022/11/21 00:26:47;;;;;;;87.40;45.30;;;;;;;-2.59;82.93;99748.83;100261;1295;99915;-55
2022/11/21 00:29:22;;;;;;;89.00;41.20;;;;;;;-2.56;82.82;99746.33;100227;1294;95803;-58
2022/11/21 00:31:53;;;;;;;83.90;41.10;;;;;;;-2.53;82.99;99742.88;100259;1294;81847;-59
2022/11/21 00:34:27;;;;;;;84.60;42.50;;;;;;;-2.48;82.99;99745.34;100240;1293;88771;-58
2022/11/21 00:37:02;;;;;;;83.10;43.60;;;;;;;-2.42;82.67;99741.31;100236;1294;79482;-58
2022/11/21 00:39:32;;;;;;;88.60;44.60;;;;;;;-2.38;82.62;99743.29;100276;1298;99017;-57
2022/11/21 00:42:01;;;;;;;91.80;45.20;;;;;;;-2.36;82.71;99744.89;100279;1300;95066;-55
2022/11/21 00:44:37;;;;;;;83.10;43.50;;;;;;;-2.35;82.80;99746.40;100266;1294;81731;-59
2022/11/21 00:47:09;;;;;;;80.90;42.10;;;;;;;-2.36;83.03;99744.20;100304;1298;88550;-54
2022/11/21 00:49:49;;;;;;;87.20;44.10;;;;;;;-2.41;82.62;99742.42;100413;1284;77753;-56
2022/11/21 00:52:20;;;;;;;86.70;42.80;;;;;;;-2.44;82.57;99747.13;100501;1297;99304;-56
2022/11/21 00:54:53;;;;;;;81.50;42.10;;;;;;;-2.45;82.54;99741.20;100409;1297;95724;-60
2022/11/21 00:57:27;;;;;;;90.30;43.10;;;;;;;-2.46;82.44;99738.85;100458;1297;83209;-59
2022/11/21 00:59:57;;;;;;;87.80;42.70;;;;;;;-2.48;82.46;99731.89;100396;1298;89175;-59
2022/11/21 01:02:29;;;;;;;87.10;44.00;;;;;;;-2.51;82.68;99724.57;100447;1293;81123;-59
2022/11/21 01:05:02;;;;;;;82.10;40.90;;;;;;;-2.54;82.46;99717.27;100432;1292;98741;-59
2022/11/21 01:07:35;;;;;;;79.10;42.40;;;;;;;-2.58;82.40;99714.63;100379;1297;95302;-59
2022/11/21 01:10:04;;;;;;;81.90;41.00;;;;;;;-2.66;82.55;99714.16;100410;1291;82373;-59
2022/11/21 01:12:33;;;;;;;80.50;44.50;;;;;;;-2.64;82.44;99711.91;100429;1297;89469;-58
2022/11/21 01:15:04;;;;;;;81.70;42.90;;;;;;;-2.59;82.54;99709.95;100389;1288;79366;-58
2022/11/21 01:17:35;;;;;;;95.60;49.60;;;;;;;-2.64;82.40;99705.21;100443;1291;99522;-57
2022/11/21 01:20:05;;;;;;;91.60;48.20;;;;;;;-2.70;82.42;99698.49;100413;1297;95067;-57
2022/11/21 01:22:35;;;;;;;92.20;47.60;;;;;;;-2.75;82.33;99696.39;100437;1298;82119;-59
2022/11/21 01:25:06;;;;;;;91.80;48.70;;;;;;;-2.84;82.39;99694.84;100413;1297;89028;-55
2022/11/21 01:27:36;;;;;;;93.00;45.50;;;;;;;-2.90;82.45;99696.05;100463;1298;79979;-56
2022/11/21 01:30:10;;;;;;;96.50;45.40;;;;;;;-3.01;82.36;99705.02;100447;1291;97611;-59
2022/11/21 01:32:39;;;;;;;85.90;44.40;;;;;;;-3.14;82.37;99704.78;100428;1291;94528;-58
2022/11/21 01:35:12;;;;;;;89.80;45.50;;;;;;;-3.25;82.35;99700.55;100439;1298;82259;-57
2022/11/21 01:37:41;;;;;;;87.10;44.20;;;;;;;-3.37;82.28;99697.31;100429;1297;87651;-58
2022/11/21 01:40:17;;;;;;;86.30;43.10;;;;;;;-3.44;82.36;99702.03;100461;1290;81579;-56
2022/11/21 01:43:01;;;;;;;88.80;43.60;;;;;;;-3.47;82.45;99701.80;100443;1298;99230;-56
2022/11/21 01:46:11;;;;;;;79.90;42.00;;;;;;;-3.48;82.76;99703.65;100437;1298;95388;-59
2022/11/21 01:48:58;;;;;;;86.50;43.00;;;;;;;-3.59;82.55;99699.54;100446;1298;83120;-57
2022/11/21 01:51:36;;;;;;;84.60;42.80;;;;;;;-3.67;82.69;99700.52;100417;1297;88293;-57
2022/11/21 01:54:18;;;;;;;87.00;43.90;;;;;;;-3.77;82.41;99699.73;100452;1291;79201;-59
2022/11/21 01:56:56;;;;;;;87.70;44.40;;;;;;;-3.89;82.39;99696.58;100429;1292;99898;-59
2022/11/21 01:59:33;;;;;;;90.10;43.10;;;;;;;-4.02;82.45;99700.42;100403;1297;95156;-56
2022/11/21 02:02:04;;;;;;;93.00;44.40;;;;;;;-4.11;82.26;99695.79;100407;1291;83141;-57
2022/11/21 02:04:41;;;;;;;91.60;43.80;;;;;;;-4.18;82.14;99702.12;100429;1297;87362;-57
2022/11/21 02:07:14;;;;;;;87.20;41.80;;;;;;;-4.27;82.22;99703.49;100372;1292;81716;-58
2022/11/21 02:09:55;;;;;;;84.30;40.80;;;;;;;-4.35;82.26;99698.11;100435;1295;99337;-58
2022/11/21 02:12:29;;;;;;;88.30;41.30;;;;;;;-4.39;82.46;99697.34;100419;1291;94799;-59
2022/11/21 02:15:00;;;;;;;83.50;41.90;;;;;;;-4.42;82.29;99692.46;100456;1297;82508;-58
2022/11/21 02:17:36;;;;;;;88.20;43.20;;;;;;;-4.47;82.53;99692.27;100473;1288;89049;-58
2022/11/21 02:20:14;;;;;;;88.40;42.00;;;;;;;-4.45;82.85;99689.17;100458;1291;78595;-59
2022/11/21 02:22:52;;;;;;;92.80;44.20;;;;;;;-4.47;83.02;99685.68;100455;1291;98463;-58
2022/11/21 02:25:28;;;;;;;94.40;45.60;;;;;;;-4.51;82.75;99681.54;100455;1298;95092;-55
2022/11/21 02:28:07;;;;;;;87.30;44.00;;;;;;;-4.56;82.69;99692.45;100464;1291;82911;-56
2022/11/21 02:30:42;;;;;;;86.10;43.40;;;;;;;-4.65;82.93;99698.59;100417;1297;88653;-59
2022/11/21 02:33:13;;;;;;;90.30;42.70;;;;;;;-4.74;82.68;99699.60;100418;1292;79774;-57
2022/11/21 02:35:42;;;;;;;83.30;42.90;;;;;;;-4.83;83.05;99698.80;100395;1297;97750;-55
2022/11/21 02:38:21;;;;;;;92.50;41.70;;;;;;;-4.91;82.81;99697.26;100371;1291;94632;-59
2022/11/21 02:41:05;;;;;;;91.60;42.00;;;;;;;-4.99;82.83;99700.17;100409;1290;81688;-59
2022/11/21 02:43:38;;;;;;;91.30;42.60;;;;;;;-5.04;82.75;99698.92;100414;1292;88593;-57
2022/11/21 02:46:08;;;;;;;82.80;41.30;;;;;;;-5.08;82.86;99701.33;100373;1291;79536;-56
2022/11/21 02:48:39;;;;;;;78.00;42.20;;;;;;;-5.07;82.97;99707.09;100379;1291;100074;-58
2022/11/21 02:51:15;;;;;;;82.60;39.70;;;;;;;-5.12;82.88;99710.04;100398;1292;93106;-59
2022/11/21 02:53:47;;;;;;;80.70;40.10;;;;;;;-5.17;82.96;99718.30;100399;1291;83348;-57
2022/11/21 02:56:18;;;;;;;84.90;41.90;;;;;;;-5.24;82.87;99720.88;100418;1297;89003;-57
2022/11/21 02:58:50;;;;;;;83.00;39.50;;;;;;;-5.35;82.84;99711.84;100441;1295;80334;-58
2022/11/21 03:01:19;;;;;;;82.10;41.00;;;;;;;-5.43;82.90;99715.70;100438;1290;98919;-58
2022/11/21 03:03:48;;;;;;;89.20;41.40;;;;;;;-5.48;82.85;99717.98;100395;1291;95727;-58
2022/11/21 03:06:24;;;;;;;91.20;40.40;;;;;;;-5.53;83.00;99716.43;100481;1291;82813;-59
2022/11/21 03:08:58;;;;;;;88.90;40.30;;;;;;;-5.60;83.08;99721.63;100469;1297;87234;-55
2022/11/21 03:11:29;;;;;;;86.70;40.40;;;;;;;-5.62;83.09;99721.10;100464;1290;79448;-56
2022/11/21 03:14:01;;;;;;;89.50;40.90;;;;;;;-5.63;83.27;99720.77;100457;1295;98465;-56
2022/11/21 03:16:32;;;;;;;88.70;40.40;;;;;;;-5.65;83.08;99719.88;100393;1297;94123;-55
2022/11/21 03:19:05;;;;;;;85.50;39.90;;;;;;;-5.65;83.27;99725.29;100310;1294;82219;-57
2022/11/21 03:21:35;;;;;;;87.00;41.70;;;;;;;-5.65;83.30;99729.86;100385;1297;88561;-56
2022/11/21 03:24:10;;;;;;;80.90;40.60;;;;;;;-5.62;83.11;99734.04;100417;1292;78166;-57
2022/11/21 03:26:44;;;;;;;85.50;40.50;;;;;;;-5.63;83.20;99740.44;100432;1291;99818;-57
2022/11/21 03:29:18;;;;;;;87.90;41.90;;;;;;;-5.65;83.33;99736.73;100428;1291;94491;-58
2022/11/21 03:31:50;;;;;;;90.60;41.70;;;;;;;-5.71;83.12;99734.50;100420;1285;81107;-57
2022/11/21 03:34:21;;;;;;;85.00;39.80;;;;;;;-5.80;83.24;99736.69;100422;1290;87300;-58
2022/11/21 03:36:50;;;;;;;87.10;40.20;;;;;;;-5.88;82.92;99736.02;100406;1297;80345;-58
2022/11/21 03:39:22;;;;;;;82.00;39.00;;;;;;;-5.92;83.21;99739.12;100427;1297;99956;-59
2022/11/21 03:41:54;;;;;;;88.10;39.10;;;;;;;-5.99;83.01;99745.02;100423;1297;95019;-59
2022/11/21 03:44:24;;;;;;;93.00;42.70;;;;;;;-6.05;82.98;99748.03;100431;1291;82795;-55
2022/11/21 03:46:57;;;;;;;86.10;38.80;;;;;;;-6.04;83.26;99749.06;100442;1297;88002;-55
2022/11/21 03:49:27;;;;;;;85.50;38.50;;;;;;;-6.03;83.24;99750.73;100467;1290;80010;-58
2022/11/21 03:51:58;;;;;;;88.80;39.20;;;;;;;-6.01;83.38;99743.36;100497;1298;99300;-59
2022/11/21 03:54:29;;;;;;;84.20;38.90;;;;;;;-5.98;83.38;99743.70;100470;1298;95046;-58
2022/11/21 03:57:01;;;;;;;83.70;40.00;;;;;;;-5.97;83.26;99747.16;100471;1291;82683;-58
2022/11/21 03:59:38;;;;;;;81.40;40.30;;;;;;;-5.97;83.38;99749.98;100438;1291;89147;-55
2022/11/21 04:02:08;;;;;;;84.80;40.70;;;;;;;-5.96;83.42;99743.61;100428;1294;78084;-55
2022/11/21 04:04:37;;;;;;;84.10;39.90;;;;;;;-6.00;83.34;99740.16;100403;1283;98842;-57
2022/11/21 04:07:11;;;;;;;86.20;41.10;;;;;;;-6.04;83.43;99735.86;100384;1292;95419;-58
2022/11/21 04:09:40;;;;;;;87.50;42.40;;;;;;;-6.09;83.40;99729.08;100472;1297;81825;-55
2022/11/21 04:12:12;;;;;;;91.70;42.00;;;;;;;-6.17;83.35;99725.35;100379;1291;88323;-56
2022/11/21 04:14:41;;;;;;;85.40;39.40;;;;;;;-6.25;83.64;99722.42;100442;1290;81887;-59
2022/11/21 04:17:10;;;;;;;91.30;41.70;;;;;;;-6.31;83.55;99725.09;100422;1298;98830;-59
2022/11/21 04:19:42;;;;;;;89.80;41.30;;;;;;;-6.35;83.39;99729.92;100415;1291;94368;-59
2022/11/21 04:22:11;;;;;;;82.00;39.50;;;;;;;-6.36;83.24;99731.04;100391;1290;83152;-58
2022/11/21 04:24:43;;;;;;;81.20;39.00;;;;;;;-6.35;83.41;99728.65;100428;1287;87724;-57
2022/11/21 04:27:13;;;;;;;81.20;39.40;;;;;;;-6.35;83.49;99722.20;100416;1292;78823;-56
2022/11/21 04:29:44;;;;;;;84.90;39.70;;;;;;;-6.38;83.29;99715.20;100459;1291;96543;-58
2022/11/21 04:32:19;;;;;;;86.70;40.20;;;;;;;-6.37;83.54;99713.20;100420;1297;95447;-59
2022/11/21 04:34:53;;;;;;;78.70;38.50;;;;;;;-6.36;83.72;99715.07;100435;1291;82451;-59
2022/11/21 04:37:25;;;;;;;81.10;36.80;;;;;;;-6.34;83.59;99717.34;100458;1297;88190;-59
2022/11/21 04:39:54;;;;;;;81.80;36.80;;;;;;;-6.36;83.61;99714.77;100496;1291;79790;-58
2022/11/21 04:42:26;;;;;;;74.40;36.00;;;;;;;-6.42;83.41;99709.02;100469;1297;98532;-58
2022/11/21 04:44:54;;;;;;;81.70;38.30;;;;;;;-6.49;83.51;99713.99;100412;1291;95617;-58
2022/11/21 04:47:24;;;;;;;90.20;40.30;;;;;;;-6.58;83.41;99716.31;100422;1291;82534;-59
2022/11/21 04:49:52;;;;;;;83.90;38.40;;;;;;;-6.65;83.55;99711.34;100401;1298;88441;-58
2022/11/21 04:52:23;;;;;;;94.70;41.10;;;;;;;-6.68;83.54;99706.81;100383;1291;82258;-58
2022/11/21 04:54:55;;;;;;;93.90;41.50;;;;;;;-6.70;83.69;99704.82;100362;1284;99359;-58
2022/11/21 04:57:27;;;;;;;91.30;43.30;;;;;;;-6.68;83.91;99700.31;100393;1290;94581;-58
2022/11/21 04:59:57;;;;;;;87.80;39.30;;;;;;;-6.67;83.62;99697.30;100455;1291;83325;-57
2022/11/21 05:02:26;;;;;;;84.10;39.60;;;;;;;-6.63;83.80;99695.98;100430;1292;89103;-58
2022/11/21 05:04:55;;;;;;;81.80;38.30;;;;;;;-6.55;84.14;99695.50;100420;1297;80063;-56
2022/11/21 05:07:26;;;;;;;82.80;39.00;;;;;;;-6.53;84.07;99699.23;100445;1298;98383;-55
2022/11/21 05:09:55;;;;;;;89.30;39.30;;;;;;;-6.56;84.00;99698.90;100412;1290;94645;-56
2022/11/21 05:15:17;;;;;;;84.30;39.70;;;;;;;-6.66;83.78;99696.69;100462;1298;88608;-59
2022/11/21 05:17:49;;;;;;;84.40;38.60;;;;;;;-6.70;83.64;99698.17;100183;1291;414008;-58
2022/11/21 05:20:22;;;;;;;78.30;36.30;;;;;;;-6.74;83.69;99706.16;100433;1282;98706;-56
2022/11/21 05:22:56;;;;;;;84.70;39.20;;;;;;;-6.73;83.98;99707.16;100423;1292;94851;-55
2022/11/21 05:25:25;;;;;;;87.10;41.20;;;;;;;-6.70;84.53;99706.45;100432;1291;81143;-55
2022/11/21 05:27:57;;;;;;;93.00;42.20;;;;;;;-6.69;84.52;99706.33;100431;1290;89208;-56
2022/11/21 05:30:29;;;;;;;106.00;44.40;;;;;;;-6.58;84.63;99704.81;100402;1291;82471;-57
2022/11/21 05:32:59;;;;;;;100.90;44.40;;;;;;;-6.50;84.87;99694.13;100401;1292;99029;-60
2022/11/21 05:35:29;;;;;;;99.20;45.70;;;;;;;-6.43;85.00;99698.01;100388;1291;94573;-56
2022/11/21 05:38:04;;;;;;;92.20;41.70;;;;;;;-6.43;84.63;99698.55;100414;1284;82597;-56
2022/11/21 05:40:35;;;;;;;93.70;42.60;;;;;;;-6.44;84.67;99704.27;100386;1298;89142;-56
2022/11/21 05:45:57;;;;;;;80.40;39.90;;;;;;;-6.42;84.72;99705.30;100411;1298;99794;-58
2022/11/21 05:48:33;;;;;;;84.80;40.20;;;;;;;-6.45;84.50;99705.55;100400;1291;95563;-55
2022/11/21 05:51:09;;;;;;;88.00;39.80;;;;;;;-6.46;84.44;99706.31;100406;1291;83363;-58
2022/11/21 05:53:42;;;;;;;85.80;38.50;;;;;;;-6.51;84.27;99710.65;100411;1290;88510;-59
2022/11/21 05:56:16;;;;;;;84.00;38.40;;;;;;;-6.58;84.36;99707.91;100463;1291;78929;-59
2022/11/21 05:58:48;;;;;;;84.50;38.50;;;;;;;-6.60;84.19;99712.05;100405;1290;99559;-56
2022/11/21 06:04:07;;;;;;;97.40;43.20;;;;;;;-6.43;84.98;99704.52;100477;1290;83314;-56
2022/11/21 06:06:38;;;;;;;107.30;47.20;;;;;;;-6.34;85.43;99704.59;100438;1295;88738;-57
2022/11/21 06:09:13;;;;;;;114.70;48.40;;;;;;;-6.22;85.43;99701.52;100460;1291;82544;-58
2022/11/21 06:11:43;;;;;;;101.90;47.40;;;;;;;-6.09;85.73;99697.13;100440;1285;99000;-58
2022/11/21 06:14:13;;;;;;;101.90;47.70;;;;;;;-5.98;85.73;99687.98;100426;1298;93732;-55
2022/11/21 06:16:44;;;;;;;102.00;45.60;;;;;;;-5.83;85.93;99689.03;100419;1291;82294;-58
2022/11/21 06:19:13;;;;;;;95.20;43.80;;;;;;;-5.71;85.94;99695.59;100450;1284;88793;-55
2022/11/21 06:21:45;;;;;;;90.20;43.10;;;;;;;-5.57;86.11;99694.94;100438;1290;78853;-56
2022/11/21 06:24:16;;;;;;;94.10;43.80;;;;;;;-5.53;85.79;99692.18;100388;1291;98665;-61
2022/11/21 06:26:49;;;;;;;90.70;43.50;;;;;;;-5.47;86.09;99693.56;100404;1298;95300;-57
2022/11/21 06:29:21;;;;;;;92.30;43.90;;;;;;;-5.40;85.74;99693.23;100411;1298;82615;-57
2022/11/21 06:31:54;;;;;;;94.50;43.30;;;;;;;-5.27;85.85;99696.73;100412;1290;89337;-58
2022/11/21 06:34:27;;;;;;;92.30;44.50;;;;;;;-5.19;85.85;99688.26;100421;1290;79970;-58
2022/11/21 06:36:57;;;;;;;88.20;43.70;;;;;;;-5.12;85.75;99682.33;100413;1291;100137;-59
2022/11/21 06:39:31;;;;;;;98.10;44.20;;;;;;;-5.07;85.76;99684.79;100420;1298;95757;-54
2022/11/21 06:42:01;;;;;;;97.60;43.50;;;;;;;-4.98;85.84;99696.95;100418;1291;82770;-54
2022/11/21 06:44:31;;;;;;;98.70;45.00;;;;;;;-4.88;85.78;99696.15;100457;1291;89077;-60
2022/11/21 06:47:01;;;;;;;95.10;45.20;;;;;;;-4.74;85.66;99701.31;100449;1288;81437;-60
2022/11/21 06:49:34;;;;;;;100.30;44.40;;;;;;;-4.59;85.61;99703.92;100428;1298;99011;-58
2022/11/21 06:52:08;;;;;;;91.80;44.60;;;;;;;-4.45;85.92;99708.55;100434;1288;95367;-57
2022/11/21 06:54:40;;;;;;;93.50;44.60;;;;;;;-4.22;85.45;99710.86;100434;1298;82429;-59
2022/11/21 06:57:09;;;;;;;92.40;45.50;;;;;;;-3.93;85.82;99712.33;100420;1292;87047;-59
2022/11/21 06:59:42;;;;;;;87.30;41.80;;;;;;;-3.77;85.54;99710.27;100429;1298;77671;-59
2022/11/21 07:02:14;;;;;;;92.80;44.20;;;;;;;-3.57;85.65;99709.77;100434;1298;100551;-59
2022/11/21 07:04:44;;;;;;;89.00;45.80;;;;;;;-3.03;85.46;99709.63;100423;1291;93501;-56
2022/11/21 07:07:16;;;;;;;90.10;45.20;;;;;;;-2.08;85.83;99697.73;100408;1291;83159;-57
2022/11/21 07:09:48;;;;;;;81.70;43.60;;;;;;;-1.38;85.02;99697.46;100394;1291;88626;-57
2022/11/21 07:15:12;;;;;;;83.90;44.10;;;;;;;0.26;84.29;99692.41;100451;1291;98147;-56
2022/11/21 07:17:41;;;;;;;82.40;44.80;;;;;;;0.84;83.57;99692.25;100405;1290;93390;-57
2022/11/21 07:20:16;;;;;;;80.00;43.90;;;;;;;1.24;83.04;99687.48;100475;1291;81890;-55
2022/11/21 07:22:55;;;;;;;83.50;45.90;;;;;;;1.49;81.84;99681.31;100454;1291;86953;-57
2022/11/21 07:25:28;;;;;;;79.60;44.40;;;;;;;1.86;80.51;99671.79;100419;1290;77684;-59
2022/11/21 07:28:01;;;;;;;76.90;44.30;;;;;;;2.15;79.59;99667.33;100473;1291;98458;-60
2022/11/21 07:30:35;;;;;;;83.20;46.20;;;;;;;2.14;79.09;99667.16;100458;1291;95211;-59
2022/11/21 07:33:08;;;;;;;75.90;44.90;;;;;;;2.30;78.59;99663.22;100417;1292;83125;-59
2022/11/21 07:35:38;;;;;;;68.60;42.40;;;;;;;2.06;78.29;99649.89;100376;1291;88156;-59
2022/11/21 07:38:07;;;;;;;66.90;42.60;;;;;;;1.80;78.09;99653.09;100391;1298;77702;-58
2022/11/21 07:40:39;;;;;;;69.20;42.70;;;;;;;1.87;78.04;99652.56;100426;1291;98661;-56
2022/11/21 07:43:11;;;;;;;75.10;43.80;;;;;;;2.10;77.52;99652.03;100255;1294;95559;-59
2022/11/21 07:45:40;;;;;;;71.30;42.80;;;;;;;2.36;77.11;99642.05;100408;1294;82724;-55
2022/11/21 07:48:14;;;;;;;67.00;40.90;;;;;;;2.67;76.79;99640.61;100389;1291;88310;-60
2022/11/21 07:50:43;;;;;;;68.20;41.40;;;;;;;3.07;75.06;99634.09;100436;1298;78455;-59
2022/11/21 07:53:14;;;;;;;65.50;41.60;;;;;;;3.39;74.39;99642.95;100428;1291;98966;-54
2022/11/21 07:55:43;;;;;;;61.60;41.50;;;;;;;3.47;73.57;99638.73;100407;1291;95191;-56
2022/11/21 07:58:17;;;;;;;67.60;42.40;;;;;;;2.75;73.11;99646.86;100447;1291;82383;-59
2022/11/21 08:00:48;;;;;;;63.90;40.30;;;;;;;1.99;73.35;99652.74;100383;1292;87965;-60
2022/11/21 08:03:18;;;;;;;65.70;41.30;;;;;;;1.60;73.64;99660.52;100448;1298;77355;-55
2022/11/21 08:05:48;;;;;;;62.60;37.00;;;;;;;1.24;73.78;99667.29;100448;1290;100206;-60
2022/11/21 08:08:18;;;;;;;62.30;38.20;;;;;;;0.98;74.14;99667.46;100436;1292;94064;-52
2022/11/21 08:10:47;;;;;;;59.20;36.70;;;;;;;0.81;74.21;99671.15;100475;1298;82003;-55
2022/11/21 08:13:19;;;;;;;59.80;36.40;;;;;;;0.53;74.43;99675.70;100462;1291;88206;-59
2022/11/21 08:15:48;;;;;;;61.00;37.80;;;;;;;0.33;74.88;99677.39;100486;1291;79901;-60
2022/11/21 08:18:20;;;;;;;64.00;37.80;;;;;;;0.30;75.16;99677.00;100443;1291;96894;-59
2022/11/21 08:20:52;;;;;;;59.90;36.70;;;;;;;0.34;75.33;99677.38;100430;1298;95100;-60
2022/11/21 08:23:21;;;;;;;61.80;36.90;;;;;;;0.58;75.37;99676.33;100300;1293;81650;-58
2022/11/21 08:25:53;;;;;;;58.80;36.70;;;;;;;1.19;75.22;99671.88;100397;1291;88345;-58
2022/11/21 08:28:23;;;;;;;65.50;38.10;;;;;;;1.79;74.81;99668.23;100422;1291;80154;-63
2022/11/21 08:30:53;;;;;;;57.80;36.60;;;;;;;2.00;74.53;99668.80;100416;1281;98289;-59
2022/11/21 08:33:24;;;;;;;57.10;35.50;;;;;;;2.03;74.44;99664.23;100382;1284;91887;-65
2022/11/21 08:35:54;;;;;;;55.00;34.90;;;;;;;2.25;74.16;99656.82;100385;1298;82245;-63
2022/11/21 08:38:26;;;;;;;56.50;33.40;;;;;;;2.33;73.83;99653.66;100415;1291;88635;-57
2022/11/21 08:43:41;;;;;;;52.80;32.30;;;;;;;2.17;73.71;99647.17;100397;1290;99302;-61
2022/11/21 08:46:11;;;;;;;54.80;33.80;;;;;;;2.47;73.59;99648.73;100415;1290;94251;-62
2022/11/21 08:48:40;;;;;;;51.10;32.20;;;;;;;2.79;73.37;99656.76;100423;1290;83199;-56
2022/11/21 08:51:12;;;;;;;50.10;32.50;;;;;;;3.36;73.22;99652.31;100407;1291;88809;-55
2022/11/21 08:53:46;;;;;;;45.80;29.70;;;;;;;3.79;72.38;99653.94;100415;1290;78437;-57
2022/11/21 08:56:15;;;;;;;46.10;29.10;;;;;;;4.11;71.35;99653.81;100424;1297;99068;-57
2022/11/21 08:58:44;;;;;;;44.60;30.50;;;;;;;4.25;71.35;99655.35;100422;1291;93375;-62
2022/11/21 09:01:16;;;;;;;45.00;30.70;;;;;;;4.50;70.92;99656.10;100450;1298;82510;-61
2022/11/21 09:03:47;;;;;;;44.30;29.30;;;;;;;4.66;70.68;99657.55;100429;1292;88604;-62
2022/11/21 09:06:16;;;;;;;42.60;28.00;;;;;;;4.56;70.11;99652.61;100389;1291;80046;-61
2022/11/21 09:08:48;;;;;;;43.00;29.00;;;;;;;4.91;70.07;99649.33;100432;1298;98525;-57
2022/11/21 09:11:19;;;;;;;42.80;28.40;;;;;;;4.96;69.39;99650.59;100407;1298;94391;-59
2022/11/21 09:19:19;;;;;;;38.80;26.90;;;;;;;4.91;68.69;99642.41;100380;1297;80019;-61
2022/11/21 09:21:50;;;;;;;37.10;26.80;;;;;;;4.64;68.11;99647.95;100394;1290;99480;-62
2022/11/21 09:24:22;;;;;;;36.00;25.80;;;;;;;4.56;68.56;99648.47;100357;1297;94916;-65
2022/11/21 09:26:50;;;;;;;39.50;27.20;;;;;;;4.78;68.15;99650.50;100370;1291;83184;-61
2022/11/21 09:29:19;;;;;;;39.10;26.40;;;;;;;5.10;68.28;99642.19;100428;1291;88679;-61
2022/11/21 09:31:48;;;;;;;36.20;25.40;;;;;;;5.49;67.86;99638.26;100423;1298;78901;-62
2022/11/21 09:34:18;;;;;;;35.80;25.20;;;;;;;5.59;67.25;99632.48;100399;1290;99369;-59
2022/11/21 09:36:48;;;;;;;38.00;26.10;;;;;;;5.66;66.80;99623.06;100442;1298;95559;-60
2022/11/21 09:39:20;;;;;;;36.80;25.70;;;;;;;5.98;67.35;99617.04;100485;1295;82487;-55
2022/11/21 09:42:02;;;;;;;32.70;23.60;;;;;;;6.30;66.72;99611.74;100427;1291;89111;-53
2022/11/21 09:44:57;;;;;;;31.90;23.00;;;;;;;6.26;65.69;99607.20;100400;1290;81154;-59
2022/11/21 09:47:30;;;;;;;32.00;23.20;;;;;;;5.80;65.26;99603.50;100421;1298;100056;-60
2022/11/21 09:50:04;;;;;;;35.30;23.30;;;;;;;5.60;64.97;99604.48;100390;1291;95827;-61
2022/11/21 09:52:46;;;;;;;32.70;20.90;;;;;;;5.35;64.71;99596.85;100424;1291;83254;-61
2022/11/21 09:55:44;;;;;;;31.40;21.50;;;;;;;5.09;64.64;99594.80;100353;1297;88736;-62
2022/11/21 09:58:30;;;;;;;33.00;22.30;;;;;;;5.35;65.40;99589.39;100355;1297;80247;-60
2022/11/21 10:01:01;;;;;;;31.00;21.80;;;;;;;5.59;64.68;99582.36;100414;1295;99925;-59
2022/11/21 10:03:41;;;;;;;34.00;21.90;;;;;;;5.64;63.96;99576.29;100231;1300;94195;-59
2022/11/21 10:06:20;;;;;;;30.60;21.30;;;;;;;5.54;63.48;99567.73;100392;1291;82884;-59
2022/11/21 10:09:02;;;;;;;35.50;23.20;;;;;;;5.12;63.66;99569.02;100418;1290;88679;-57
2022/11/21 10:14:46;;;;;;;39.70;25.80;;;;;;;4.22;63.78;99583.88;100321;1290;100108;-54
2022/11/21 10:17:25;;;;;;;43.50;27.30;;;;;;;3.79;63.21;99589.08;100440;1290;93272;-58
2022/11/21 10:20:30;;;;;;;42.00;26.70;;;;;;;3.52;64.20;99586.05;100462;1291;81806;-58
2022/11/21 10:23:22;;;;;;;;;;;;;;;3.18;64.42;99581.99;100428;1291;89185;-58
2022/11/21 10:26:05;;;;;;;42.70;27.60;;;;;;;3.03;64.91;99575.71;100392;1297;78729;-61
2022/11/21 10:28:44;;;;;;;42.70;25.70;;;;;;;2.84;64.93;99572.01;100434;1291;100072;-59
2022/11/21 10:31:17;;;;;;;44.70;28.60;;;;;;;2.74;65.07;99567.86;100425;1291;95727;-59
2022/11/21 10:33:50;;;;;;;43.00;26.20;;;;;;;2.58;65.11;99566.04;100373;1297;81093;-58
2022/11/21 10:36:30;;;;;;;44.70;27.30;;;;;;;2.39;65.60;99561.38;100382;1291;88942;-59
2022/11/21 10:39:10;;;;;;;41.90;26.60;;;;;;;2.41;65.45;99562.27;100410;1298;78216;-60
2022/11/21 10:41:52;;;;;;;44.30;28.20;;;;;;;2.40;66.06;99557.92;100420;1298;98951;-61
2022/11/21 10:47:27;;;;;;;45.20;26.30;;;;;;;2.40;66.14;99558.13;100314;1291;83346;-60
2022/11/21 10:50:16;;;;;;;44.80;27.00;;;;;;;2.15;66.25;99556.98;100387;1284;87963;-59
2022/11/21 10:52:49;;;;;;;44.70;27.10;;;;;;;2.08;66.76;99559.30;100384;1283;78473;-59
2022/11/21 10:55:21;;;;;;;48.10;26.80;;;;;;;2.11;66.98;99561.70;100416;1298;98454;-60
2022/11/21 10:57:53;;;;;;;41.40;26.20;;;;;;;2.11;67.23;99557.77;100413;1290;95583;-60
2022/11/21 11:00:28;;;;;;;50.00;30.20;;;;;;;2.02;67.35;99555.67;100470;1290;79285;-61
2022/11/21 11:03:07;;;;;;;43.80;27.30;;;;;;;2.02;67.66;99561.14;100456;1297;90482;-55
2022/11/21 11:05:40;;;;;;;40.70;26.90;;;;;;;1.99;67.69;99556.68;100398;1291;80249;-58
2022/11/21 11:08:14;;;;;;;46.00;27.70;;;;;;;2.03;67.91;99561.24;100408;1291;101562;-60
2022/11/21 11:11:01;;;;;;;47.80;27.70;;;;;;;1.95;68.04;99564.23;100397;1291;95056;-60
2022/11/21 11:13:33;;;;;;;47.10;28.10;;;;;;;1.85;68.23;99574.79;100420;1291;82279;-59
2022/11/21 11:16:15;;;;;;;45.40;27.00;;;;;;;1.80;68.51;99576.93;100408;1290;86962;-60
2022/11/21 11:18:54;;;;;;;42.30;25.30;;;;;;;1.82;68.70;99580.84;100373;1292;78704;-61
2022/11/21 11:21:27;;;;;;;48.50;28.30;;;;;;;1.78;69.01;99582.09;100426;1291;98903;-60
2022/11/21 11:24:20;;;;;;;48.80;27.60;;;;;;;1.80;69.05;99577.05;100422;1290;95022;-62
2022/11/21 11:27:01;;;;;;;45.30;26.20;;;;;;;1.86;69.25;99574.33;100452;1291;82930;-63
2022/11/21 11:29:34;;;;;;;45.50;26.90;;;;;;;1.94;69.53;99575.14;100497;1290;87285;-62
2022/11/21 11:32:15;;;;;;;47.60;28.70;;;;;;;1.97;69.50;99574.12;100488;1291;79790;-62
2022/11/21 11:34:58;;;;;;;46.50;27.90;;;;;;;2.00;69.59;99571.64;100463;1291;100074;-62
2022/11/21 11:37:38;;;;;;;43.60;26.90;;;;;;;1.99;69.56;99570.89;100426;1290;94711;-61
2022/11/21 11:40:25;;;;;;;41.90;26.10;;;;;;;1.98;69.83;99568.30;100459;1290;80381;-62
2022/11/21 11:50:09;;;;;;;44.60;26.90;;;;;;;2.09;70.13;99558.48;100438;1290;99108;-52
2022/11/21 11:52:32;;;;;;;45.00;25.80;;;;;;;2.08;70.22;99557.35;100373;1292;97266;-59
2022/11/21 11:55:16;;;;;;;48.90;27.40;;;;;;;2.09;70.41;99552.16;100423;1290;83372;-63
2022/11/21 11:57:49;;;;;;;41.30;25.10;;;;;;;2.07;70.44;99551.41;100405;1298;88135;-58
2022/11/21 12:00:33;;;;;;;44.50;28.10;;;;;;;2.08;70.56;99557.05;100368;1298;78928;-50
2022/11/21 12:03:11;;;;;;;46.10;26.80;;;;;;;2.12;70.71;99549.65;100409;1291;100223;-58
2022/11/21 12:05:57;;;;;;;42.80;25.90;;;;;;;2.13;70.73;99549.69;100392;1298;95794;-59
2022/11/21 12:08:35;;;;;;;43.60;25.40;;;;;;;2.20;70.82;99553.75;100446;1291;83333;-60
2022/11/21 12:14:02;;;;;;;;;;;;;;;2.19;71.11;99551.42;100456;1291;82048;-57
2022/11/21 12:16:36;;;;;;;39.10;23.20;;;;;;;2.19;71.13;99547.33;100460;1298;97719;-57